Flight Track Log - Related Links

Times and Time Zones

All times are in EDT time to prevent confusion due to time zone crossing. See the UAL3746 flight status page for this flight to view local times or setup timezone preferences in your user account.

Time Position Orientation Groundspeed Altitude Reporting Facility
EDT Latitude Longitude Course Direction KTS MPH feet Rate Location/Type
Wed 05:27:38 PM 42.8653 -71.4656 215° Southwest 166 191 3,700  Level Boston Center
Wed 05:28:38 PM 42.8867 -71.5389 292° West 166 191 5,300 2,600 Climbing Boston Center
Wed 05:29:00 PM 42.9461 -71.8651 279° West  Level FlightAware Approximate
Wed 05:29:38 PM 42.9289 -71.6319 302° West 249 287 8,900  Level Boston Center
Wed 05:30:00 PM 42.9500 -72.0101 270° West  Level FlightAware Approximate
Wed 05:30:38 PM 42.9756 -71.7250 304° West 287 330 10,500  Level Boston Center
Wed 05:31:00 PM 42.9500 -72.1555 270° West  Level FlightAware Approximate
Wed 05:31:38 PM 43.0178 -71.8408 297° West 332 382 12,000  Level Boston Center
Wed 05:32:38 PM 43.0289 -71.9828 276° West 362 417 13,700 1,900 Climbing Boston Center
Wed 05:33:38 PM 43.0356 -72.1306 274° West 390 449 15,800 1,800 Climbing Boston Center
Wed 05:34:38 PM 43.0442 -72.2811 275° West 400 460 17,300 1,350 Climbing Boston Center
Wed 05:35:38 PM 43.0528 -72.4428 274° West 412 474 18,500 1,250 Climbing Boston Center
Wed 05:36:38 PM 43.0631 -72.5850 276° West 417 480 19,800 1,400 Climbing Boston Center
Wed 05:37:38 PM 43.0628 -72.7442 270° West 422 486 21,300 1,350 Climbing Boston Center
Wed 05:38:38 PM 43.0831 -72.9064 280° West 428 493 22,500 1,250 Climbing Boston Center
Wed 05:39:38 PM 43.1050 -73.0914 279° West 434 499 23,800 1,200 Climbing Boston Center
Wed 05:40:38 PM 43.1269 -73.2594 280° West 445 512 24,900 1,000 Climbing Boston Center
Wed 05:41:38 PM 43.1403 -73.4133 277° West 453 521 25,800 950 Climbing Boston Center
Wed 05:42:38 PM 43.1594 -73.5814 279° West 453 521 26,800 1,050 Climbing Boston Center
Wed 05:43:38 PM 43.1594 -73.7806 270° West 464 534 27,900 1,050 Climbing Boston Center
Wed 05:44:38 PM 43.1636 -73.9572 272° West 464 534 28,900 1,000 Climbing Boston Center
Wed 05:45:38 PM 43.1631 -74.1367 270° West 464 534 29,900 900 Climbing Boston Center
Wed 05:46:38 PM 43.1644 -74.3189 271° West 474 545 30,700 800 Climbing Boston Center
Wed 05:47:38 PM 43.1656 -74.4953 271° West 474 545 31,500 800 Climbing Boston Center
Wed 05:48:38 PM 43.1683 -74.6778 271° West 474 545 32,300 800 Climbing Boston Center
Wed 05:49:38 PM 43.1667 -74.8628 269° West 474 545 33,100 750 Climbing Boston Center
Wed 05:50:38 PM 43.1672 -75.0222 270° West 474 545 33,800 750 Climbing Boston Center
Wed 05:51:38 PM 43.1650 -75.2042 269° West 479 551 34,600 800 Climbing Boston Center
Wed 05:52:38 PM 43.1647 -75.3892 270° West 479 551 35,400 700 Climbing Boston Center
Wed 05:53:38 PM 43.1661 -75.5689 271° West 479 551 36,000 300 Climbing Boston Center
Wed 05:54:38 PM 43.1650 -75.7539 270° West 479 551 36,000  Level Boston Center
Wed 05:55:38 PM 43.1636 -75.9389 269° West 479 551 36,000  Level Boston Center
Wed 05:56:38 PM 43.1619 -76.1267 269° West 486 559 36,000  Level Boston Center
Wed 05:59:46 PM 43.1606 -76.7178 270° West 492 566 36,000  Level Cleveland Center
Wed 06:00:46 PM 43.1597 -76.8831 270° West 492 566 36,000  Level Cleveland Center
Wed 06:01:45 PM 43.1592 -77.0653 270° West 487 560 36,000  Level Cleveland Center
Wed 06:02:45 PM 43.1564 -77.2533 269° West 487 560 36,000  Level Cleveland Center
Wed 06:03:45 PM 43.1572 -77.4325 270° West 487 560 36,000  Level Cleveland Center
Wed 06:04:45 PM 43.1558 -77.6147 269° West 487 560 36,000  Level Cleveland Center
Wed 06:05:46 PM 43.1519 -77.7972 268° West 487 560 36,000  Level Cleveland Center
Wed 06:06:45 PM 43.1500 -77.9794 269° West 482 555 36,000  Level Cleveland Center
Wed 06:07:45 PM 43.1458 -78.1789 268° West 482 555 36,000  Level Cleveland Center
Wed 06:08:45 PM 43.1433 -78.3611 269° West 482 555 36,000  Level Cleveland Center
Wed 06:09:45 PM 43.1383 -78.5406 268° West 477 549 36,000  Level Cleveland Center
Wed 06:10:45 PM 43.1350 -78.7169 269° West 477 549 36,000  Level Cleveland Center
Wed 06:11:46 PM 43.1294 -78.9019 268° West 482 555 36,000  Level Cleveland Center
Wed 06:12:10 PM 43.1167 -78.9500 250° West 470 541 36,000  Level Toronto Center
Wed 06:13:10 PM 43.1167 -79.1333 270° West 450 518 36,000  Level Toronto Center
Wed 06:14:10 PM 43.1000 -79.2833 261° West 450 518 36,000  Level Toronto Center
Wed 06:15:10 PM 43.1000 -79.4500 270° West 450 518 36,000  Level Toronto Center
Wed 06:16:10 PM 43.1000 -79.6333 270° West 450 518 36,000  Level Toronto Center
Wed 06:17:10 PM 43.0833 -79.8167 263° West 450 518 36,000  Level Toronto Center
Wed 06:18:10 PM 43.0833 -79.9833 270° West 450 518 36,000  Level Toronto Center
Wed 06:19:10 PM 43.0667 -80.1500 262° West 460 529 36,000  Level Toronto Center
Wed 06:20:10 PM 43.0667 -80.3167 270° West 460 529 36,000  Level Toronto Center
Wed 06:21:10 PM 43.0667 -80.5000 270° West 460 529 36,000  Level Toronto Center
Wed 06:22:10 PM 43.0500 -80.6667 262° West 450 518 36,000  Level Toronto Center
Wed 06:23:10 PM 43.0333 -80.8500 263° West 440 506 36,000  Level Toronto Center
Wed 06:24:10 PM 43.0333 -81.0000 270° West 440 506 36,000  Level Toronto Center
Wed 06:25:10 PM 43.0167 -81.1833 263° West 440 506 36,000  Level Toronto Center
Wed 06:26:10 PM 43.0167 -81.3500 270° West 450 518 36,000  Level Toronto Center
Wed 06:27:10 PM 43.0167 -81.5333 270° West 460 529 36,000  Level Toronto Center
Wed 06:28:10 PM 43.0167 -81.6833 270° West 460 529 36,000  Level Toronto Center
Wed 06:29:10 PM 43.0167 -81.8667 270° West 450 518 36,000  Level Toronto Center
Wed 06:30:10 PM 43.0000 -82.0333 262° West 440 506 36,000  Level Toronto Center
Wed 06:31:10 PM 43.0000 -82.1833 270° West 440 506 36,000  Level Toronto Center
Wed 06:32:10 PM 43.0000 -82.3667 270° West 450 518 36,000 -100 Level Toronto Center
Wed 06:33:10 PM 43.0000 -82.5333 270° West 450 518 35,800 -550 Descending Toronto Center
Wed 06:34:10 PM 43.0014 -82.7039 271° West 446 513 34,900 -900 Descending Cleveland Center
Wed 06:35:10 PM 42.9961 -82.8739 268° West 453 521 34,000 -600 Descending Cleveland Center
Wed 06:36:10 PM 42.9925 -83.0469 268° West 453 521 33,700 -650 Descending Cleveland Center
Wed 06:37:10 PM 42.9844 -83.2197 266° West 459 528 32,700 -850 Descending Cleveland Center
Wed 06:38:10 PM 42.9783 -83.3928 267° West 459 528 32,000 -350 Descending Cleveland Center
Wed 06:39:10 PM 42.9739 -83.5628 268° West 459 528 32,000  Level Cleveland Center
Wed 06:40:10 PM 42.9672 -83.7356 267° West 459 528 32,000  Level Cleveland Center
Wed 06:41:10 PM 42.9519 -83.9078 263° West 459 528 32,000  Level Cleveland Center
Wed 06:42:10 PM 42.9317 -84.0997 262° West 465 535 32,000  Level Cleveland Center
Wed 06:43:10 PM 42.9139 -84.2689 262° West 465 535 32,000  Level Cleveland Center
Wed 06:44:31 PM 42.8939 -84.4878 263° West 456 525 32,000  Level Chicago Center
Wed 06:45:33 PM 42.8761 -84.6600 262° West 458 527 32,000  Level Chicago Center
Wed 06:46:35 PM 42.8578 -84.8333 262° West 462 532 32,000  Level Chicago Center
Wed 06:47:38 PM 42.8400 -85.0081 262° West 465 535 32,000  Level Chicago Center
Wed 06:48:40 PM 42.8172 -85.2169 262° West 465 535 32,000  Level Chicago Center
Wed 06:49:42 PM 42.7986 -85.3922 262° West 468 539 32,000 -726 Level Chicago Center
Wed 06:50:44 PM 42.7747 -85.5647 259° West 462 532 30,500 -1,984 Descending Chicago Center
Wed 06:51:46 PM 42.7456 -85.7253 256° West 441 507 27,900 -2,516 Descending Chicago Center
Wed 06:52:48 PM 42.7181 -85.8808 257° West 425 489 25,300 -2,565 Descending Chicago Center
Wed 06:53:50 PM 42.6886 -86.0392 256° West 427 491 22,600 -2,516 Descending Chicago Center
Wed 06:54:52 PM 42.6622 -86.1894 257° West 412 474 20,100 -1,210 Descending Chicago Center
Wed 06:55:54 PM 42.6361 -86.3225 255° West 372 428 20,100 -581 Level Chicago Center
Wed 06:56:56 PM 42.6044 -86.4919 256° West 385 443 18,900 -1,645 Descending Chicago Center
Wed 06:57:58 PM 42.5783 -86.6267 255° West 372 428 16,700 -1,872 Descending Chicago Center
Wed 06:59:01 PM 42.5558 -86.7503 256° West 343 395 15,000 -1,392 Descending Chicago Center
Wed 07:00:03 PM 42.5278 -86.8500 249° West 290 334 13,800 -1,548 Descending Chicago Center
Wed 07:01:05 PM 42.5011 -86.9478 250° West 279 321 11,800 -1,887 Descending Chicago Center
Wed 07:02:07 PM 42.4733 -87.0439 249° West 274 315 9,900 -1,355 Descending Chicago Center
Wed 07:03:09 PM 42.4431 -87.1519 249° West 259 298 9,000 -435 Descending Chicago Center
Wed 07:04:11 PM 42.4181 -87.2456 250° West 265 305 9,000 -717 Level Chicago Center
Wed 07:05:48 PM 42.3667 -87.3833 243° Southwest 267 307 7,100 -968 Descending Chicago TRACON
Wed 07:06:15 PM 42.3467 -87.4278 239° Southwest 267 307 7,000 -67 Descending Chicago Center
Wed 07:07:17 PM 42.3139 -87.5064 241° Southwest 261 300 7,000  Level Chicago Center
Wed 07:08:19 PM 42.2747 -87.5869 237° Southwest 260 299 7,000 -242 Level Chicago Center
Wed 07:09:21 PM 42.2119 -87.6625 222° Southwest 255 293 6,500 -726 Descending Chicago Center
Wed 07:10:23 PM 42.1564 -87.7181 217° Southwest 251 289 5,500 -1,306 Descending Chicago Center
Wed 07:11:25 PM 42.1125 -87.7700 221° Southwest 221 254 3,800 -1,694 Descending Chicago Center
Wed 07:11:48 PM 42.0833 -87.8000 217° Southwest 216 249 3,100 -1,229 Descending Chicago TRACON
Wed 07:12:48 PM 42.0500 -87.8333 217° Southwest 176 203 2,100 -1,000 Descending Chicago TRACON

Login

Don't have an account? Register now (free) for customized features, flight alerts, and more!